Robert Gray Army Air Field Airport
KGRK : now visible

Airfield :











YOU CAN JOIN US ON...

 
LOGIN :

Register | Disclaimer

   EN    FR    IT 

 









Legend :    VFR   Marginal VFR   IFR   Intensive IFR   Very Intensive IFR
Visi :
Ceiling :
>= 8 km
>= 3000ft
5 to 8 km
1000 to 3000 ft
1500m to 5 km
500 to 1000 ft
800 to 1500m
200 to 500 ft
< 800m
< 200 ft
Symbols :   Thunderstorms  Fog  Heavy snow  Heavy precipitations  Wind > 20 kt






- Airport Elevation : 1015 ft
- IATA code : GRK


KGRK - Robert Gray Army Air Field

CURRENT METAR :
  • 031358Z AUTO 15004KT 10SM CLR 27/19 A3004 RMK AO2 SLP160 T02740193

EXPIRED METARs :
  • 031258Z AUTO 00000KT 10SM SCT130 25/19 A3003 RMK AO2 SLP157 T02500189
  • 031158Z AUTO 00000KT 10SM CLR 22/18 A3002 RMK AO2 LTG DSNT S SLP154 T02230181 10263 20220 53008

TAF TAF KGRK
Valid from the 03 at 08:00 until the 04 at 14:00 UTC


030800Z 0308/0414 VRB06KT 9999 SKC QNH2998INS
BECMG 0317/0318 10009KT 9999 FEW080 SCT110 QNH2991INS
BECMG 0401/0402 15006KT 9999 FEW085 QNH2993INS TX37/0321Z TN22/0312Z
KZHU FIR / North America



MET'MAP, your aeronautical weather chart ! - Copyright ORBIFLY December 2007 - Disclaimer

ORBIFLY MET'MAP TEAM :

Programming & Development : Alexandra Zaïnal
Concept & original design : Baudouin d'Aumeries
Assistance for programming : Marc-Olivier Méhu
Technical & hardware support : Manuel Goepfert

Contact : metmap@orbifly.com




SOURCES & CREDITS :

   NOAA       Earth
Advisory